Time;durP1;ratioP1;P1;durP2;ratioP2;P2;SDS_P1;SDS_P2;PMS_P1;PMS_P2;Temp;Humidity;BMP_temperature;BMP_pressure;BME280_temperature;BME280_humidity;BME280_pressure;Samples;Min_cycle;Max_cycle;Signal;HPM_P1;HPM_P2
2022/05/24 00:00:22;;;;;;;2.93;2.00;;;;;;;;;;522027;28;1632;-81
2022/05/24 00:00:39;;;;;;;3.40;1.90;;;;;;;;;;522800;28;1414;-81
2022/05/24 00:00:54;;;;;;;3.55;1.90;;;;;;;;;;522073;28;1432;-81
2022/05/24 00:01:09;;;;;;;4.25;1.70;;;;;;;;;;522085;28;1839;-81
2022/05/24 00:01:25;;;;;;;2.40;1.90;;;;;;;;;;521090;28;1527;-81
2022/05/24 00:01:41;;;;;;;2.22;1.90;;;;;;;;;;521817;28;1653;-81
2022/05/24 00:01:56;;;;;;;2.00;1.70;;;;;;;;;;520613;28;1537;-81
2022/05/24 00:02:12;;;;;;;1.90;1.60;;;;;;;;;;520096;28;1469;-81
2022/05/24 00:02:27;;;;;;;1.97;1.70;;;;;;;;;;519997;28;1471;-81
2022/05/24 00:02:43;;;;;;;1.88;1.67;;;;;;;;;;519956;28;1629;-81
2022/05/24 00:03:00;;;;;;;2.00;1.67;;;;;;;;;;520842;28;1737;-81
2022/05/24 00:03:18;;;;;;;1.95;1.70;;;;;;;;;;518732;28;1403;-81
2022/05/24 00:03:33;;;;;;;1.92;1.60;;;;;;;;;;519989;28;1515;-81
2022/05/24 00:03:49;;;;;;;2.10;1.58;;;;;;;;;;518731;28;1501;-81
2022/05/24 00:04:04;;;;;;;3.70;1.80;;;;;;;;;;519945;28;1503;-81
2022/05/24 00:04:19;;;;;;;4.80;2.00;;;;;;;;;;520078;28;1603;-81
2022/05/24 00:04:35;;;;;;;3.20;2.03;;;;;;;;;;520298;28;1584;-81
2022/05/24 00:04:50;;;;;;;2.20;2.00;;;;;;;;;;519933;28;1298;-81
2022/05/24 00:05:07;;;;;;;2.67;1.98;;;;;;;;;;520663;28;1374;-81
2022/05/24 00:05:24;;;;;;;3.33;1.90;;;;;;;;;;519616;28;1518;-81
2022/05/24 00:05:40;;;;;;;2.97;1.85;;;;;;;;;;519873;28;1583;-81
2022/05/24 00:05:55;;;;;;;2.63;1.90;;;;;;;;;;520629;28;1373;-81
2022/05/24 00:06:12;;;;;;;2.70;1.95;;;;;;;;;;522432;28;955;-81
2022/05/24 00:06:30;;;;;;;2.15;1.83;;;;;;;;;;523891;28;897;-81
2022/05/24 00:06:46;;;;;;;2.30;1.90;;;;;;;;;;521445;28;1194;-81
2022/05/24 00:07:02;;;;;;;2.40;1.80;;;;;;;;;;521367;28;1404;-81
2022/05/24 00:07:17;;;;;;;2.30;1.83;;;;;;;;;;521256;28;1694;-80
2022/05/24 00:07:34;;;;;;;2.87;1.90;;;;;;;;;;522104;28;1939;-80
2022/05/24 00:07:49;;;;;;;3.35;1.90;;;;;;;;;;519965;28;1496;-80
2022/05/24 00:08:07;;;;;;;2.80;2.00;;;;;;;;;;520212;28;1117;-81
2022/05/24 00:08:23;;;;;;;2.90;2.03;;;;;;;;;;520233;28;1307;-82
2022/05/24 00:08:38;;;;;;;3.70;1.90;;;;;;;;;;520982;28;1548;-81
2022/05/24 00:08:53;;;;;;;3.50;1.80;;;;;;;;;;519860;28;1647;-81
2022/05/24 00:09:09;;;;;;;2.83;2.00;;;;;;;;;;520100;28;1682;-81
2022/05/24 00:09:25;;;;;;;2.87;2.00;;;;;;;;;;519982;28;1469;-81
2022/05/24 00:09:40;;;;;;;2.97;2.00;;;;;;;;;;518259;28;1415;-82
2022/05/24 00:09:56;;;;;;;2.23;1.90;;;;;;;;;;518476;28;941;-81
2022/05/24 00:10:16;;;;;;;2.00;1.80;;;;;;;;;;520031;28;1426;-81
2022/05/24 00:10:32;;;;;;;2.08;1.88;;;;;;;;;;521585;28;1762;-81
2022/05/24 00:10:48;;;;;;;2.00;1.80;;;;;;;;;;522813;28;1009;-81
2022/05/24 00:11:03;;;;;;;2.17;1.90;;;;;;;;;;520990;28;1622;-81
2022/05/24 00:11:19;;;;;;;3.78;2.05;;;;;;;;;;520464;28;1508;-81
2022/05/24 00:11:34;;;;;;;3.83;2.00;;;;;;;;;;521288;28;953;-81
2022/05/24 00:11:50;;;;;;;2.35;2.03;;;;;;;;;;523838;28;1424;-81
2022/05/24 00:12:05;;;;;;;2.87;2.20;;;;;;;;;;523279;28;865;-81
2022/05/24 00:12:21;;;;;;;3.08;2.10;;;;;;;;;;523964;28;1331;-81
2022/05/24 00:12:38;;;;;;;2.47;1.90;;;;;;;;;;523435;28;1480;-81
2022/05/24 00:12:54;;;;;;;2.50;1.90;;;;;;;;;;524167;28;1670;-81
2022/05/24 00:13:11;;;;;;;2.72;2.00;;;;;;;;;;524397;28;1696;-81
2022/05/24 00:13:27;;;;;;;2.40;1.90;;;;;;;;;;522326;28;1369;-81
2022/05/24 00:13:42;;;;;;;2.10;1.80;;;;;;;;;;521218;28;1482;-80
2022/05/24 00:13:57;;;;;;;2.75;1.80;;;;;;;;;;521200;28;1544;-80
2022/05/24 00:14:13;;;;;;;3.43;2.03;;;;;;;;;;522336;28;1100;-80
2022/05/24 00:15:23;;;;;;;2.80;2.10;;;;;;;;;;522467;28;692;-80
2022/05/24 00:15:38;;;;;;;2.85;2.08;;;;;;;;;;520335;28;1292;-80
2022/05/24 00:15:54;;;;;;;3.47;2.10;;;;;;;;;;520705;28;1914;-80
2022/05/24 00:16:10;;;;;;;2.80;2.10;;;;;;;;;;523321;28;1387;-80
2022/05/24 00:16:26;;;;;;;2.53;2.10;;;;;;;;;;521163;28;1343;-80
2022/05/24 00:16:41;;;;;;;2.97;2.10;;;;;;;;;;518510;28;1352;-80
2022/05/24 00:16:58;;;;;;;3.40;2.10;;;;;;;;;;519743;28;1168;-80
2022/05/24 00:17:13;;;;;;;3.58;2.30;;;;;;;;;;519718;28;1690;-80
2022/05/24 00:17:29;;;;;;;3.90;2.35;;;;;;;;;;517570;28;1367;-80
2022/05/24 00:17:54;;;;;;;3.47;2.13;;;;;;;;;;518341;28;1779;-80
2022/05/24 00:18:14;;;;;;;2.33;2.00;;;;;;;;;;520200;28;1397;-80
2022/05/24 00:18:30;;;;;;;2.40;1.95;;;;;;;;;;520270;28;1347;-80
2022/05/24 00:18:45;;;;;;;3.05;2.10;;;;;;;;;;522546;28;1373;-80
2022/05/24 00:19:01;;;;;;;3.75;2.10;;;;;;;;;;521631;28;1591;-80
2022/05/24 00:19:16;;;;;;;3.60;2.07;;;;;;;;;;521081;28;1580;-82
2022/05/24 00:19:32;;;;;;;2.95;2.00;;;;;;;;;;524003;28;1673;-81
2022/05/24 00:19:47;;;;;;;2.57;1.90;;;;;;;;;;522912;28;1476;-81
2022/05/24 00:20:04;;;;;;;2.42;1.90;;;;;;;;;;524195;28;1534;-81
2022/05/24 00:20:20;;;;;;;2.55;1.90;;;;;;;;;;524264;28;1108;-81
2022/05/24 00:20:45;;;;;;;2.55;1.98;;;;;;;;;;524446;28;999;-81
2022/05/24 00:21:03;;;;;;;2.88;1.90;;;;;;;;;;524319;28;822;-81
2022/05/24 00:21:19;;;;;;;2.78;1.88;;;;;;;;;;522372;28;1504;-81
2022/05/24 00:21:35;;;;;;;2.90;1.90;;;;;;;;;;524368;28;1301;-81
2022/05/24 00:21:50;;;;;;;2.47;2.03;;;;;;;;;;524317;28;869;-81
2022/05/24 00:22:05;;;;;;;2.80;2.10;;;;;;;;;;522110;28;1220;-81
2022/05/24 00:22:21;;;;;;;3.65;2.10;;;;;;;;;;521023;28;1455;-81
2022/05/24 00:22:36;;;;;;;3.63;2.00;;;;;;;;;;522277;28;1596;-81
2022/05/24 00:22:52;;;;;;;3.13;2.00;;;;;;;;;;521238;28;1444;-81
2022/05/24 00:23:11;;;;;;;2.95;2.00;;;;;;;;;;522229;28;1650;-81
2022/05/24 00:23:29;;;;;;;2.65;2.00;;;;;;;;;;520283;28;1737;-81
2022/05/24 00:23:44;;;;;;;2.65;2.00;;;;;;;;;;522179;28;1453;-81
2022/05/24 00:23:59;;;;;;;2.67;2.00;;;;;;;;;;522093;28;2337;-81
2022/05/24 00:24:15;;;;;;;2.83;1.97;;;;;;;;;;519845;28;1428;-81
2022/05/24 00:24:30;;;;;;;2.57;1.77;;;;;;;;;;520113;28;1816;-81
2022/05/24 00:24:46;;;;;;;2.30;1.70;;;;;;;;;;519590;28;1510;-81
2022/05/24 00:25:01;;;;;;;2.80;1.80;;;;;;;;;;517862;28;1635;-81
2022/05/24 00:25:17;;;;;;;2.92;1.70;;;;;;;;;;517827;28;1629;-81
2022/05/24 00:25:36;;;;;;;2.55;1.60;;;;;;;;;;518661;28;1545;-82
2022/05/24 00:25:55;;;;;;;2.05;1.80;;;;;;;;;;519933;28;1417;-81
2022/05/24 00:26:20;;;;;;;1.95;1.70;;;;;;;;;;520385;28;1617;-81
2022/05/24 00:26:35;;;;;;;2.70;1.75;;;;;;;;;;521938;28;1397;-81
2022/05/24 00:26:51;;;;;;;2.95;1.80;;;;;;;;;;521827;28;1624;-81
2022/05/24 00:27:06;;;;;;;2.97;1.60;;;;;;;;;;519941;28;1587;-81
2022/05/24 00:27:21;;;;;;;2.70;1.70;;;;;;;;;;522082;28;1571;-81
2022/05/24 00:27:37;;;;;;;2.27;1.80;;;;;;;;;;522282;28;1863;-81
2022/05/24 00:27:53;;;;;;;2.40;1.80;;;;;;;;;;523206;28;1596;-81
2022/05/24 00:28:10;;;;;;;2.00;1.63;;;;;;;;;;524332;28;1060;-81
2022/05/24 00:28:28;;;;;;;2.50;1.55;;;;;;;;;;524433;28;1803;-81
2022/05/24 00:28:43;;;;;;;2.97;1.60;;;;;;;;;;523745;28;1706;-81
2022/05/24 00:28:59;;;;;;;2.97;1.70;;;;;;;;;;524402;28;888;-81
2022/05/24 00:29:14;;;;;;;2.10;1.47;;;;;;;;;;523755;28;1512;-81
2022/05/24 00:29:30;;;;;;;2.58;1.50;;;;;;;;;;524436;28;1278;-81
2022/05/24 00:29:45;;;;;;;2.77;1.63;;;;;;;;;;523702;28;1468;-81
2022/05/24 00:30:01;;;;;;;2.80;1.50;;;;;;;;;;525128;28;920;-81
2022/05/24 00:30:17;;;;;;;3.88;1.70;;;;;;;;;;524502;28;1555;-81
2022/05/24 00:30:32;;;;;;;3.10;1.73;;;;;;;;;;525774;28;1593;-81
2022/05/24 00:30:49;;;;;;;2.25;1.67;;;;;;;;;;521818;28;1610;-81
2022/05/24 00:31:05;;;;;;;2.20;1.70;;;;;;;;;;523818;28;1429;-81
2022/05/24 00:31:21;;;;;;;2.13;1.73;;;;;;;;;;524209;28;1311;-81
2022/05/24 00:31:36;;;;;;;2.33;1.60;;;;;;;;;;524312;28;1629;-81
2022/05/24 00:31:53;;;;;;;2.60;1.80;;;;;;;;;;521208;28;1533;-81
2022/05/24 00:32:08;;;;;;;2.40;1.92;;;;;;;;;;521811;28;1765;-81
2022/05/24 00:32:23;;;;;;;2.15;1.83;;;;;;;;;;519994;28;1608;-80
2022/05/24 00:32:39;;;;;;;1.90;1.70;;;;;;;;;;519941;28;1662;-80
2022/05/24 00:32:54;;;;;;;1.93;1.70;;;;;;;;;;518832;28;1573;-80
2022/05/24 00:33:10;;;;;;;2.55;1.90;;;;;;;;;;519136;28;1591;-80
2022/05/24 00:33:26;;;;;;;2.27;1.87;;;;;;;;;;518930;28;1510;-80
2022/05/24 00:33:43;;;;;;;1.80;1.70;;;;;;;;;;518993;28;1448;-80
2022/05/24 00:33:58;;;;;;;2.33;1.77;;;;;;;;;;520217;28;1675;-78
2022/05/24 00:34:13;;;;;;;2.83;1.90;;;;;;;;;;520568;28;1317;-80
2022/05/24 00:34:29;;;;;;;2.53;1.77;;;;;;;;;;522186;28;1791;-80
2022/05/24 00:34:44;;;;;;;2.10;1.53;;;;;;;;;;522808;28;1274;-81
2022/05/24 00:35:00;;;;;;;1.83;1.60;;;;;;;;;;524389;28;1365;-81
2022/05/24 00:35:15;;;;;;;2.13;1.70;;;;;;;;;;521678;28;1717;-81
2022/05/24 00:35:32;;;;;;;2.60;1.70;;;;;;;;;;520599;28;1805;-81
2022/05/24 00:35:48;;;;;;;3.15;1.77;;;;;;;;;;519880;28;1906;-81
2022/05/24 00:36:04;;;;;;;2.83;1.77;;;;;;;;;;519403;28;1414;-81
2022/05/24 00:36:19;;;;;;;2.17;1.70;;;;;;;;;;520155;28;1796;-81
2022/05/24 00:36:35;;;;;;;3.08;1.75;;;;;;;;;;519889;28;1597;-81
2022/05/24 00:36:50;;;;;;;3.10;1.80;;;;;;;;;;519755;28;1577;-81
2022/05/24 00:37:05;;;;;;;1.85;1.65;;;;;;;;;;520366;28;1383;-82
2022/05/24 00:37:24;;;;;;;1.90;1.70;;;;;;;;;;522578;28;1555;-81
2022/05/24 00:37:42;;;;;;;2.20;1.90;;;;;;;;;;521932;28;1524;-81
2022/05/24 00:37:57;;;;;;;3.35;1.75;;;;;;;;;;522302;28;1241;-81
2022/05/24 00:38:27;;;;;;;3.47;1.75;;;;;;;;;;521002;28;1655;-81
2022/05/24 00:38:43;;;;;;;4.18;2.00;;;;;;;;;;520131;28;1596;-81
2022/05/24 00:38:58;;;;;;;4.50;2.03;;;;;;;;;;522942;28;1477;-80
2022/05/24 00:39:13;;;;;;;3.88;1.85;;;;;;;;;;521326;28;1493;-80
2022/05/24 00:39:29;;;;;;;3.93;1.90;;;;;;;;;;519514;28;1383;-80
2022/05/24 00:39:46;;;;;;;3.80;2.10;;;;;;;;;;519155;28;1410;-80
2022/05/24 00:40:02;;;;;;;2.55;1.90;;;;;;;;;;519387;28;1402;-80
2022/05/24 00:40:41;;;;;;;2.50;1.80;;;;;;;;;;521557;28;1402;-80
2022/05/24 00:41:26;;;;;;;3.03;1.67;;;;;;;;;;521083;28;1770;-80
2022/05/24 00:41:49;;;;;;;2.47;1.70;;;;;;;;;;517110;28;1562;-81
2022/05/24 00:42:12;;;;;;;2.38;1.80;;;;;;;;;;517673;28;1583;-81
2022/05/24 00:42:30;;;;;;;2.72;2.10;;;;;;;;;;519637;28;1333;-81
2022/05/24 00:42:47;;;;;;;3.45;2.00;;;;;;;;;;524790;28;1604;-81
2022/05/24 00:43:09;;;;;;;3.25;2.00;;;;;;;;;;523477;28;1481;-81
2022/05/24 00:44:00;;;;;;;2.30;1.80;;;;;;;;;;523963;28;1581;-81
2022/05/24 00:44:23;;;;;;;2.33;1.83;;;;;;;;;;520519;28;1436;-81
2022/05/24 00:45:05;;;;;;;3.78;2.10;;;;;;;;;;523918;28;1785;-82
2022/05/24 00:45:31;;;;;;;2.90;2.05;;;;;;;;;;523250;28;1396;-81
2022/05/24 00:45:51;;;;;;;2.03;1.83;;;;;;;;;;523725;28;889;-81
2022/05/24 00:46:13;;;;;;;2.95;1.90;;;;;;;;;;524249;28;1551;-79
2022/05/24 00:46:41;;;;;;;3.10;2.13;;;;;;;;;;524282;28;1044;-81
2022/05/24 00:47:05;;;;;;;2.95;2.03;;;;;;;;;;524486;28;857;-81
2022/05/24 00:47:30;;;;;;;2.38;1.90;;;;;;;;;;524432;28;1055;-81
2022/05/24 00:47:54;;;;;;;3.33;2.10;;;;;;;;;;523677;28;1701;-81
2022/05/24 00:48:25;;;;;;;3.40;2.10;;;;;;;;;;524664;28;873;-82
2022/05/24 00:48:51;;;;;;;3.05;2.20;;;;;;;;;;524006;28;1812;-81
2022/05/24 00:49:13;;;;;;;4.40;2.17;;;;;;;;;;521542;28;1816;-81
2022/05/24 00:49:46;;;;;;;2.60;2.00;;;;;;;;;;521427;28;1510;-81
2022/05/24 00:50:09;;;;;;;2.15;1.80;;;;;;;;;;524202;28;1610;-81
2022/05/24 00:50:31;;;;;;;2.20;1.80;;;;;;;;;;522969;28;1496;-81
2022/05/24 00:50:49;;;;;;;2.58;1.90;;;;;;;;;;521664;28;1363;-81
2022/05/24 00:51:09;;;;;;;3.15;2.08;;;;;;;;;;520160;28;1781;-81
2022/05/24 00:51:36;;;;;;;3.00;1.92;;;;;;;;;;519808;28;1406;-81
2022/05/24 00:51:56;;;;;;;3.88;2.00;;;;;;;;;;521268;28;1471;-82
2022/05/24 00:52:29;;;;;;;3.67;2.17;;;;;;;;;;518983;28;1577;-82
2022/05/24 00:52:59;;;;;;;3.92;1.90;;;;;;;;;;520253;28;944;-81
2022/05/24 00:53:45;;;;;;;2.95;2.00;;;;;;;;;;523385;28;1558;-81
2022/05/24 00:54:00;;;;;;;3.08;2.00;;;;;;;;;;521667;28;1506;-81
2022/05/24 00:54:16;;;;;;;2.47;1.92;;;;;;;;;;523829;28;1365;-81
2022/05/24 00:54:31;;;;;;;2.40;1.90;;;;;;;;;;524195;28;1518;-81
2022/05/24 00:54:47;;;;;;;2.50;1.98;;;;;;;;;;523787;28;1570;-82
2022/05/24 00:55:03;;;;;;;2.30;2.00;;;;;;;;;;524348;28;1641;-81
2022/05/24 00:55:22;;;;;;;3.30;2.00;;;;;;;;;;524406;28;1457;-81
2022/05/24 00:55:47;;;;;;;3.20;2.00;;;;;;;;;;524130;28;1562;-81
2022/05/24 00:56:11;;;;;;;3.47;1.95;;;;;;;;;;524347;28;960;-81
2022/05/24 00:56:44;;;;;;;2.65;1.92;;;;;;;;;;524530;28;952;-81
2022/05/24 00:57:04;;;;;;;2.58;2.35;;;;;;;;;;524239;28;1290;-81
2022/05/24 00:57:44;;;;;;;2.97;2.35;;;;;;;;;;523993;28;1306;-81
2022/05/24 00:58:35;;;;;;;3.75;2.17;;;;;;;;;;521665;28;1525;-81
2022/05/24 00:59:26;;;;;;;2.33;1.80;;;;;;;;;;520859;28;1377;-81
2022/05/24 00:59:48;;;;;;;3.15;2.08;;;;;;;;;;521127;28;1932;-81
2022/05/24 01:00:13;;;;;;;3.42;2.10;;;;;;;;;;522432;28;1614;-81
2022/05/24 01:00:30;;;;;;;2.83;2.08;;;;;;;;;;522742;28;1504;-81
2022/05/24 01:00:45;;;;;;;2.58;1.90;;;;;;;;;;522435;28;1386;-81
2022/05/24 01:01:09;;;;;;;2.83;1.80;;;;;;;;;;522351;28;1718;-81
2022/05/24 01:01:42;;;;;;;4.35;1.80;;;;;;;;;;524207;28;1787;-81
2022/05/24 01:01:59;;;;;;;2.97;1.90;;;;;;;;;;523347;28;1741;-81
2022/05/24 01:02:15;;;;;;;2.97;2.00;;;;;;;;;;521667;28;1467;-81
2022/05/24 01:02:31;;;;;;;3.07;2.10;;;;;;;;;;519987;28;1533;-81
2022/05/24 01:02:46;;;;;;;3.47;2.10;;;;;;;;;;522060;28;1947;-81
2022/05/24 01:03:02;;;;;;;3.80;2.10;;;;;;;;;;519964;28;1478;-81
2022/05/24 01:03:17;;;;;;;3.25;2.03;;;;;;;;;;519882;28;1441;-81
2022/05/24 01:03:32;;;;;;;3.13;2.07;;;;;;;;;;516987;28;1522;-81
2022/05/24 01:03:48;;;;;;;3.20;2.08;;;;;;;;;;517398;28;1542;-81
2022/05/24 01:04:04;;;;;;;3.07;2.03;;;;;;;;;;517742;28;846;-81
2022/05/24 01:04:20;;;;;;;2.95;2.10;;;;;;;;;;517896;28;1677;-81
2022/05/24 01:04:36;;;;;;;2.27;2.03;;;;;;;;;;517452;28;1603;-81
2022/05/24 01:04:51;;;;;;;2.22;1.90;;;;;;;;;;516639;28;1612;-81
2022/05/24 01:05:10;;;;;;;2.47;1.80;;;;;;;;;;516087;28;1523;-81
2022/05/24 01:05:28;;;;;;;3.40;2.20;;;;;;;;;;514422;28;1713;-81
2022/05/24 01:05:44;;;;;;;2.83;2.05;;;;;;;;;;516061;28;1357;-81
2022/05/24 01:05:59;;;;;;;2.60;1.90;;;;;;;;;;515127;28;2013;-81
2022/05/24 01:06:15;;;;;;;3.00;2.13;;;;;;;;;;517100;28;1484;-81
2022/05/24 01:06:30;;;;;;;3.33;2.10;;;;;;;;;;517699;28;1412;-81
2022/05/24 01:06:47;;;;;;;2.92;2.00;;;;;;;;;;518612;28;1479;-82
2022/05/24 01:07:03;;;;;;;3.38;1.95;;;;;;;;;;520881;28;1372;-82
2022/05/24 01:07:18;;;;;;;3.43;2.00;;;;;;;;;;521239;28;1270;-81
2022/05/24 01:07:34;;;;;;;2.90;1.95;;;;;;;;;;521753;28;1505;-81
2022/05/24 01:07:50;;;;;;;2.37;1.93;;;;;;;;;;520095;28;1691;-81
2022/05/24 01:08:05;;;;;;;2.47;2.10;;;;;;;;;;519838;28;1597;-81
2022/05/24 01:08:21;;;;;;;3.92;2.30;;;;;;;;;;520035;28;1592;-81
2022/05/24 01:08:36;;;;;;;4.17;2.27;;;;;;;;;;519798;28;1549;-81
2022/05/24 01:08:53;;;;;;;3.72;2.13;;;;;;;;;;519849;28;1494;-82
2022/05/24 01:09:25;;;;;;;3.72;2.10;;;;;;;;;;519911;28;1593;-82
2022/05/24 01:09:50;;;;;;;2.45;2.00;;;;;;;;;;518202;28;1817;-81
2022/05/24 01:10:11;;;;;;;2.88;2.13;;;;;;;;;;518129;28;1683;-81
2022/05/24 01:10:40;;;;;;;2.30;2.10;;;;;;;;;;519973;28;1530;-81
2022/05/24 01:10:55;;;;;;;3.85;2.03;;;;;;;;;;521597;28;1566;-81
2022/05/24 01:11:13;;;;;;;3.78;2.10;;;;;;;;;;522209;28;1295;-81
2022/05/24 01:11:32;;;;;;;2.53;2.08;;;;;;;;;;520984;28;1587;-81
2022/05/24 01:11:56;;;;;;;2.97;2.17;;;;;;;;;;522949;28;1638;-81
2022/05/24 01:12:26;;;;;;;3.47;1.98;;;;;;;;;;523130;28;995;-81
2022/05/24 01:12:51;;;;;;;3.15;1.80;;;;;;;;;;523218;28;1282;-81
2022/05/24 01:13:13;;;;;;;2.15;1.90;;;;;;;;;;523927;28;1473;-81
2022/05/24 01:13:30;;;;;;;2.53;1.80;;;;;;;;;;523843;28;1702;-81
2022/05/24 01:13:46;;;;;;;2.10;1.80;;;;;;;;;;521573;28;1716;-81
2022/05/24 01:14:03;;;;;;;2.40;1.90;;;;;;;;;;522227;28;1571;-81
2022/05/24 01:14:20;;;;;;;2.55;2.00;;;;;;;;;;522160;28;1720;-82
2022/05/24 01:14:36;;;;;;;3.03;1.88;;;;;;;;;;522642;28;1478;-82
2022/05/24 01:14:54;;;;;;;2.63;1.73;;;;;;;;;;523578;28;1505;-82
2022/05/24 01:15:12;;;;;;;2.47;1.90;;;;;;;;;;522821;28;1580;-81
2022/05/24 01:15:28;;;;;;;2.30;1.88;;;;;;;;;;522002;28;1769;-81
2022/05/24 01:15:44;;;;;;;3.33;1.80;;;;;;;;;;523646;28;1851;-81
2022/05/24 01:16:00;;;;;;;3.20;1.70;;;;;;;;;;523248;28;1942;-81
2022/05/24 01:16:15;;;;;;;2.63;1.67;;;;;;;;;;521622;28;1567;-81
2022/05/24 01:16:30;;;;;;;2.23;1.70;;;;;;;;;;521289;28;1490;-81
2022/05/24 01:16:46;;;;;;;1.95;1.75;;;;;;;;;;519969;28;1258;-81
2022/05/24 01:17:02;;;;;;;1.97;1.70;;;;;;;;;;518080;28;1691;-81
2022/05/24 01:17:17;;;;;;;2.78;1.70;;;;;;;;;;518712;28;1291;-81
2022/05/24 01:17:34;;;;;;;4.03;2.00;;;;;;;;;;519547;28;1433;-81
2022/05/24 01:17:52;;;;;;;3.50;2.00;;;;;;;;;;519119;28;1541;-81
2022/05/24 01:18:07;;;;;;;2.50;1.70;;;;;;;;;;520489;28;1617;-81
2022/05/24 01:18:24;;;;;;;2.25;1.60;;;;;;;;;;521544;28;1588;-81
2022/05/24 01:18:39;;;;;;;2.17;1.63;;;;;;;;;;519972;28;1831;-81
2022/05/24 01:18:55;;;;;;;2.10;1.70;;;;;;;;;;521963;28;1713;-81
2022/05/24 01:19:20;;;;;;;2.45;1.80;;;;;;;;;;519923;28;1183;-81
2022/05/24 01:19:46;;;;;;;2.55;1.70;;;;;;;;;;518037;28;1465;-81
2022/05/24 01:20:03;;;;;;;2.35;1.55;;;;;;;;;;514957;28;1671;-81
2022/05/24 01:20:19;;;;;;;2.25;1.50;;;;;;;;;;514972;28;1566;-81
2022/05/24 01:20:35;;;;;;;2.17;1.48;;;;;;;;;;517237;28;1565;-81
2022/05/24 01:21:03;;;;;;;1.85;1.45;;;;;;;;;;518222;28;929;-81
2022/05/24 01:21:18;;;;;;;2.60;1.55;;;;;;;;;;519327;28;1660;-82
2022/05/24 01:21:34;;;;;;;2.30;1.67;;;;;;;;;;520930;28;1562;-82
2022/05/24 01:21:49;;;;;;;2.63;1.70;;;;;;;;;;522000;28;1366;-82
2022/05/24 01:22:29;;;;;;;3.10;1.60;;;;;;;;;;521295;28;1516;-81
2022/05/24 01:22:59;;;;;;;3.13;1.90;;;;;;;;;;523148;28;1547;-82
2022/05/24 01:23:48;;;;;;;2.53;1.80;;;;;;;;;;522465;28;1536;-81
2022/05/24 01:24:25;;;;;;;3.97;2.00;;;;;;;;;;523995;28;1479;-82
2022/05/24 01:24:48;;;;;;;3.10;1.88;;;;;;;;;;523041;28;1468;-82
2022/05/24 01:25:10;;;;;;;2.63;1.77;;;;;;;;;;523677;28;1419;-82
2022/05/24 01:25:30;;;;;;;4.00;1.80;;;;;;;;;;521568;28;1560;-82
2022/05/24 01:25:52;;;;;;;3.38;1.77;;;;;;;;;;521803;28;1369;-82
2022/05/24 01:26:26;;;;;;;2.35;1.73;;;;;;;;;;522570;28;1599;-82
2022/05/24 01:26:51;;;;;;;2.50;1.80;;;;;;;;;;520777;28;1611;-82
2022/05/24 01:27:07;;;;;;;1.90;1.60;;;;;;;;;;521970;28;1856;-82
2022/05/24 01:27:22;;;;;;;1.70;1.57;;;;;;;;;;522799;28;1745;-82
2022/05/24 01:27:37;;;;;;;1.97;1.70;;;;;;;;;;521026;28;1681;-81
2022/05/24 01:27:53;;;;;;;2.83;1.70;;;;;;;;;;520217;28;1635;-81
2022/05/24 01:28:19;;;;;;;3.00;1.50;;;;;;;;;;520017;28;1549;-82
2022/05/24 01:28:41;;;;;;;2.57;1.70;;;;;;;;;;519415;28;1592;-82
2022/05/24 01:29:00;;;;;;;2.17;1.67;;;;;;;;;;520635;28;1434;-82
2022/05/24 01:29:18;;;;;;;1.90;1.55;;;;;;;;;;521560;28;1439;-82
2022/05/24 01:29:33;;;;;;;3.17;1.73;;;;;;;;;;521124;28;1414;-82
2022/05/24 01:29:48;;;;;;;2.43;1.70;;;;;;;;;;521395;28;1603;-82
2022/05/24 01:30:07;;;;;;;1.67;1.52;;;;;;;;;;522801;28;1433;-82
2022/05/24 01:30:23;;;;;;;1.75;1.60;;;;;;;;;;523088;28;1554;-81
2022/05/24 01:30:38;;;;;;;2.43;1.70;;;;;;;;;;522041;28;1505;-82
2022/05/24 01:30:55;;;;;;;2.63;1.65;;;;;;;;;;522227;28;1855;-82
2022/05/24 01:31:10;;;;;;;3.30;1.77;;;;;;;;;;520078;28;1674;-82
2022/05/24 01:36:09;;;;;;;3.28;1.90;;;;;;;;;;520376;28;929;-82
2022/05/24 01:36:10;;;;;;;2.45;1.63;;;;;;;;;;524205;28;1556;-82
2022/05/24 01:36:29;;;;;;;2.55;1.60;;;;;;;;;;521699;28;1520;-82
2022/05/24 01:36:45;;;;;;;3.53;1.60;;;;;;;;;;520128;28;1122;-82
2022/05/24 01:37:00;;;;;;;3.47;1.50;;;;;;;;;;520819;28;1373;-82
2022/05/24 01:37:17;;;;;;;2.90;1.50;;;;;;;;;;522049;28;1555;-82
2022/05/24 01:37:33;;;;;;;2.85;1.45;;;;;;;;;;523228;28;1489;-82
2022/05/24 01:37:48;;;;;;;2.40;1.60;;;;;;;;;;520371;28;1548;-82
2022/05/24 01:38:07;;;;;;;2.10;1.60;;;;;;;;;;520398;28;948;-81
2022/05/24 01:38:24;;;;;;;2.65;1.40;;;;;;;;;;521210;28;1346;-81
2022/05/24 01:38:45;;;;;;;3.20;1.60;;;;;;;;;;519803;28;1359;-81
2022/05/24 01:39:04;;;;;;;3.40;1.67;;;;;;;;;;519547;28;1600;-81
2022/05/24 01:39:20;;;;;;;2.53;1.60;;;;;;;;;;172906;28;10000681;-82
2022/05/24 01:39:36;;;;;;;2.63;1.60;;;;;;;;;;521816;28;964;-81
2022/05/24 01:39:54;;;;;;;2.80;1.67;;;;;;;;;;524198;28;968;-81
2022/05/24 01:40:09;;;;;;;2.88;1.60;;;;;;;;;;521965;28;1305;-81
2022/05/24 01:40:25;;;;;;;2.17;1.60;;;;;;;;;;519976;28;1274;-82
2022/05/24 01:40:40;;;;;;;2.23;1.60;;;;;;;;;;519833;28;885;-82
2022/05/24 01:40:56;;;;;;;2.65;1.70;;;;;;;;;;517764;28;1329;-82
2022/05/24 01:41:16;;;;;;;2.93;1.70;;;;;;;;;;517741;28;1266;-82
2022/05/24 01:41:44;;;;;;;3.03;1.70;;;;;;;;;;517688;28;1611;-81
2022/05/24 01:42:00;;;;;;;3.85;1.70;;;;;;;;;;517583;28;1571;-81
2022/05/24 01:42:17;;;;;;;3.67;1.60;;;;;;;;;;518284;28;826;-81
2022/05/24 01:42:32;;;;;;;3.35;1.52;;;;;;;;;;520425;28;1405;-81
2022/05/24 01:42:48;;;;;;;2.80;1.50;;;;;;;;;;521657;28;1346;-81
2022/05/24 01:43:04;;;;;;;2.50;1.60;;;;;;;;;;521143;28;1564;-81
2022/05/24 01:43:22;;;;;;;4.00;1.60;;;;;;;;;;521918;28;956;-81
2022/05/24 01:43:39;;;;;;;3.72;1.60;;;;;;;;;;522939;28;1566;-81
2022/05/24 01:43:56;;;;;;;3.50;1.60;;;;;;;;;;522642;28;1737;-82
2022/05/24 01:44:14;;;;;;;3.75;1.50;;;;;;;;;;521895;28;1634;-82
2022/05/24 01:44:50;;;;;;;3.28;1.77;;;;;;;;;;519505;28;1609;-82
2022/05/24 01:45:20;;;;;;;2.88;1.60;;;;;;;;;;522021;28;1648;-82
2022/05/24 01:45:59;;;;;;;1.88;1.50;;;;;;;;;;519585;28;1571;-82
2022/05/24 01:46:17;;;;;;;2.92;1.40;;;;;;;;;;520427;28;1615;-82
2022/05/24 01:46:44;;;;;;;2.85;1.60;;;;;;;;;;523332;28;1579;-82
2022/05/24 01:47:00;;;;;;;2.13;1.40;;;;;;;;;;524053;28;1051;-82
2022/05/24 01:47:18;;;;;;;2.85;1.52;;;;;;;;;;523856;28;1440;-82
2022/05/24 01:47:35;;;;;;;2.50;1.48;;;;;;;;;;521324;28;1497;-82
2022/05/24 01:47:58;;;;;;;1.88;1.30;;;;;;;;;;521398;28;1579;-81
2022/05/24 01:48:17;;;;;;;2.50;1.58;;;;;;;;;;522134;28;940;-81
2022/05/24 01:48:51;;;;;;;2.08;1.55;;;;;;;;;;521679;28;1279;-81
2022/05/24 01:49:11;;;;;;;3.25;1.60;;;;;;;;;;522231;28;948;-82
2022/05/24 01:49:30;;;;;;;2.40;1.58;;;;;;;;;;521024;28;834;-82
2022/05/24 01:49:50;;;;;;;2.55;1.75;;;;;;;;;;519894;28;1420;-82
2022/05/24 01:50:10;;;;;;;3.03;1.70;;;;;;;;;;518688;28;1426;-82
2022/05/24 01:50:26;;;;;;;2.28;1.60;;;;;;;;;;520718;28;1675;-82
2022/05/24 01:50:43;;;;;;;2.15;1.60;;;;;;;;;;522112;28;1520;-82
2022/05/24 01:51:02;;;;;;;2.22;1.75;;;;;;;;;;519976;28;1730;-82
2022/05/24 01:51:24;;;;;;;2.38;1.70;;;;;;;;;;520815;28;1296;-82
2022/05/24 01:51:46;;;;;;;2.38;1.67;;;;;;;;;;520650;28;1111;-82
2022/05/24 01:52:10;;;;;;;2.70;1.80;;;;;;;;;;518898;28;1875;-82
2022/05/24 01:52:53;;;;;;;2.95;2.00;;;;;;;;;;519876;28;1859;-83
2022/05/24 01:53:18;;;;;;;3.58;2.20;;;;;;;;;;522328;28;1364;-82
2022/05/24 01:53:38;;;;;;;3.50;2.20;;;;;;;;;;524037;28;1035;-82
2022/05/24 01:53:58;;;;;;;2.75;2.00;;;;;;;;;;524001;28;1428;-82
2022/05/24 01:54:14;;;;;;;2.97;1.80;;;;;;;;;;521888;28;1494;-82
2022/05/24 01:54:34;;;;;;;2.60;1.83;;;;;;;;;;521863;28;1565;-82
2022/05/24 01:55:00;;;;;;;3.15;1.92;;;;;;;;;;519412;28;1441;-82
2022/05/24 01:55:20;;;;;;;3.05;2.17;;;;;;;;;;519388;28;1650;-82
2022/05/24 01:55:40;;;;;;;2.75;1.90;;;;;;;;;;519198;28;1405;-82
2022/05/24 01:55:59;;;;;;;2.33;1.70;;;;;;;;;;521542;28;1902;-82
2022/05/24 01:56:19;;;;;;;2.28;1.60;;;;;;;;;;522961;28;1919;-81
2022/05/24 01:56:50;;;;;;;1.70;1.60;;;;;;;;;;524051;28;1758;-82
2022/05/24 01:57:13;;;;;;;3.20;1.90;;;;;;;;;;523689;28;1483;-82
2022/05/24 01:57:32;;;;;;;4.70;1.88;;;;;;;;;;523578;28;1424;-81
2022/05/24 01:57:51;;;;;;;3.13;1.77;;;;;;;;;;523333;28;1737;-81
2022/05/24 01:58:10;;;;;;;1.77;1.50;;;;;;;;;;524580;28;1013;-81
2022/05/24 01:58:28;;;;;;;2.00;1.50;;;;;;;;;;524071;28;1426;-81
2022/05/24 01:58:50;;;;;;;2.63;1.60;;;;;;;;;;524249;28;1533;-81
2022/05/24 01:59:07;;;;;;;3.95;1.50;;;;;;;;;;524221;28;1591;-81
2022/05/24 01:59:24;;;;;;;3.15;1.60;;;;;;;;;;524452;28;944;-81
2022/05/24 01:59:42;;;;;;;1.70;1.50;;;;;;;;;;522194;28;1458;-81
2022/05/24 02:00:00;;;;;;;2.35;1.42;;;;;;;;;;520944;28;1450;-81
2022/05/24 02:00:16;;;;;;;3.08;1.60;;;;;;;;;;522532;28;1239;-81
2022/05/24 02:00:32;;;;;;;3.20;1.58;;;;;;;;;;524045;28;1598;-81
2022/05/24 02:00:54;;;;;;;2.60;1.48;;;;;;;;;;521822;28;1374;-81
2022/05/24 02:01:23;;;;;;;1.92;1.60;;;;;;;;;;521226;28;1059;-81
2022/05/24 02:01:53;;;;;;;2.03;1.60;;;;;;;;;;520803;28;1391;-81
2022/05/24 02:02:09;;;;;;;2.20;1.50;;;;;;;;;;519854;28;1445;-81
2022/05/24 02:02:26;;;;;;;1.88;1.52;;;;;;;;;;519925;28;1756;-81
2022/05/24 02:02:43;;;;;;;2.45;1.48;;;;;;;;;;518947;28;1657;-81
2022/05/24 02:02:58;;;;;;;3.30;1.50;;;;;;;;;;519865;28;1438;-81
2022/05/24 02:03:14;;;;;;;4.20;1.60;;;;;;;;;;520173;28;1579;-82
2022/05/24 02:03:29;;;;;;;3.03;1.50;;;;;;;;;;519544;28;1679;-82
2022/05/24 02:03:44;;;;;;;2.10;1.50;;;;;;;;;;519986;28;1998;-82
2022/05/24 02:04:04;;;;;;;2.45;1.60;;;;;;;;;;519940;28;1701;-82